sensor_id;sensor_type;location;lat;lon;timestamp;P1;durP1;ratioP1;P2;durP2;ratioP2
18364;SDS011;9309;52.126;11.616;2023-08-24T00:02:20;7.03;;;3.00;;
18364;SDS011;9309;52.126;11.616;2023-08-24T00:04:47;2.67;;;2.57;;
18364;SDS011;9309;52.126;11.616;2023-08-24T00:07:14;5.80;;;3.23;;
18364;SDS011;9309;52.126;11.616;2023-08-24T00:09:41;3.87;;;2.73;;
18364;SDS011;9309;52.126;11.616;2023-08-24T00:12:09;3.07;;;2.90;;
18364;SDS011;9309;52.126;11.616;2023-08-24T00:14:36;3.40;;;3.10;;
18364;SDS011;9309;52.126;11.616;2023-08-24T00:17:03;3.03;;;2.80;;
18364;SDS011;9309;52.126;11.616;2023-08-24T00:19:30;3.00;;;2.90;;
18364;SDS011;9309;52.126;11.616;2023-08-24T00:21:57;5.03;;;3.07;;
18364;SDS011;9309;52.126;11.616;2023-08-24T00:24:23;4.83;;;2.67;;
18364;SDS011;9309;52.126;11.616;2023-08-24T00:26:50;10.97;;;3.33;;
18364;SDS011;9309;52.126;11.616;2023-08-24T00:29:18;3.80;;;3.50;;
18364;SDS011;9309;52.126;11.616;2023-08-24T00:31:48;3.17;;;2.97;;
18364;SDS011;9309;52.126;11.616;2023-08-24T00:34:14;2.97;;;2.87;;
18364;SDS011;9309;52.126;11.616;2023-08-24T00:36:41;2.93;;;2.73;;
18364;SDS011;9309;52.126;11.616;2023-08-24T00:39:08;4.30;;;2.97;;
18364;SDS011;9309;52.126;11.616;2023-08-24T00:41:36;3.53;;;3.27;;
18364;SDS011;9309;52.126;11.616;2023-08-24T00:44:03;4.97;;;3.00;;
18364;SDS011;9309;52.126;11.616;2023-08-24T00:46:33;2.83;;;2.73;;
18364;SDS011;9309;52.126;11.616;2023-08-24T00:49:00;3.80;;;3.47;;
18364;SDS011;9309;52.126;11.616;2023-08-24T00:51:28;3.37;;;3.13;;
18364;SDS011;9309;52.126;11.616;2023-08-24T00:53:55;6.07;;;3.03;;
18364;SDS011;9309;52.126;11.616;2023-08-24T00:56:23;3.40;;;3.10;;
18364;SDS011;9309;52.126;11.616;2023-08-24T00:58:50;6.20;;;3.00;;
18364;SDS011;9309;52.126;11.616;2023-08-24T01:01:18;6.67;;;3.57;;
18364;SDS011;9309;52.126;11.616;2023-08-24T01:03:47;4.30;;;3.63;;
18364;SDS011;9309;52.126;11.616;2023-08-24T01:06:14;4.20;;;3.37;;
18364;SDS011;9309;52.126;11.616;2023-08-24T01:08:40;2.80;;;2.70;;
18364;SDS011;9309;52.126;11.616;2023-08-24T01:11:09;4.40;;;2.90;;
18364;SDS011;9309;52.126;11.616;2023-08-24T01:13:43;4.13;;;3.73;;
18364;SDS011;9309;52.126;11.616;2023-08-24T01:16:16;7.43;;;4.40;;
18364;SDS011;9309;52.126;11.616;2023-08-24T01:18:48;4.03;;;3.63;;
18364;SDS011;9309;52.126;11.616;2023-08-24T01:21:16;5.23;;;4.23;;
18364;SDS011;9309;52.126;11.616;2023-08-24T01:23:44;3.30;;;3.00;;
18364;SDS011;9309;52.126;11.616;2023-08-24T01:26:17;6.00;;;3.80;;
18364;SDS011;9309;52.126;11.616;2023-08-24T01:28:45;6.57;;;3.43;;
18364;SDS011;9309;52.126;11.616;2023-08-24T01:31:13;3.43;;;3.13;;
18364;SDS011;9309;52.126;11.616;2023-08-24T01:33:42;3.80;;;3.40;;
18364;SDS011;9309;52.126;11.616;2023-08-24T01:36:09;2.87;;;2.67;;
18364;SDS011;9309;52.126;11.616;2023-08-24T01:38:37;3.70;;;3.50;;
18364;SDS011;9309;52.126;11.616;2023-08-24T01:41:08;4.27;;;3.53;;
18364;SDS011;9309;52.126;11.616;2023-08-24T01:43:39;3.03;;;2.93;;
18364;SDS011;9309;52.126;11.616;2023-08-24T01:46:08;4.70;;;3.30;;
18364;SDS011;9309;52.126;11.616;2023-08-24T01:48:36;8.53;;;3.20;;
18364;SDS011;9309;52.126;11.616;2023-08-24T01:51:04;3.30;;;3.00;;
18364;SDS011;9309;52.126;11.616;2023-08-24T01:53:34;4.60;;;3.13;;
18364;SDS011;9309;52.126;11.616;2023-08-24T01:56:01;3.83;;;3.53;;
18364;SDS011;9309;52.126;11.616;2023-08-24T01:58:33;3.63;;;3.33;;
18364;SDS011;9309;52.126;11.616;2023-08-24T02:01:01;4.17;;;3.00;;
18364;SDS011;9309;52.126;11.616;2023-08-24T02:03:28;4.07;;;3.00;;
18364;SDS011;9309;52.126;11.616;2023-08-24T02:05:55;7.37;;;3.70;;
18364;SDS011;9309;52.126;11.616;2023-08-24T02:08:22;4.03;;;3.60;;
18364;SDS011;9309;52.126;11.616;2023-08-24T02:10:50;8.30;;;3.37;;
18364;SDS011;9309;52.126;11.616;2023-08-24T02:13:17;5.00;;;2.70;;
18364;SDS011;9309;52.126;11.616;2023-08-24T02:15:44;3.40;;;3.20;;
18364;SDS011;9309;52.126;11.616;2023-08-24T02:18:12;3.53;;;3.10;;
18364;SDS011;9309;52.126;11.616;2023-08-24T02:20:39;5.43;;;3.60;;
18364;SDS011;9309;52.126;11.616;2023-08-24T02:23:05;4.63;;;3.57;;
18364;SDS011;9309;52.126;11.616;2023-08-24T02:25:32;3.93;;;3.63;;
18364;SDS011;9309;52.126;11.616;2023-08-24T02:27:59;5.47;;;3.67;;
18364;SDS011;9309;52.126;11.616;2023-08-24T02:30:26;4.40;;;4.03;;
18364;SDS011;9309;52.126;11.616;2023-08-24T02:32:53;4.87;;;4.30;;
18364;SDS011;9309;52.126;11.616;2023-08-24T02:35:21;3.67;;;3.40;;
18364;SDS011;9309;52.126;11.616;2023-08-24T02:37:48;6.53;;;3.70;;
18364;SDS011;9309;52.126;11.616;2023-08-24T02:40:15;4.17;;;3.87;;
18364;SDS011;9309;52.126;11.616;2023-08-24T02:42:42;4.23;;;3.80;;
18364;SDS011;9309;52.126;11.616;2023-08-24T02:45:09;5.97;;;3.17;;
18364;SDS011;9309;52.126;11.616;2023-08-24T02:47:37;3.90;;;3.57;;
18364;SDS011;9309;52.126;11.616;2023-08-24T02:50:04;3.97;;;3.57;;
18364;SDS011;9309;52.126;11.616;2023-08-24T02:52:35;4.30;;;3.97;;
18364;SDS011;9309;52.126;11.616;2023-08-24T02:55:02;10.43;;;4.07;;
18364;SDS011;9309;52.126;11.616;2023-08-24T02:57:28;5.97;;;4.03;;
18364;SDS011;9309;52.126;11.616;2023-08-24T02:59:55;10.90;;;3.80;;
18364;SDS011;9309;52.126;11.616;2023-08-24T03:02:22;4.27;;;3.97;;
18364;SDS011;9309;52.126;11.616;2023-08-24T03:04:49;3.57;;;3.27;;
18364;SDS011;9309;52.126;11.616;2023-08-24T03:07:16;4.97;;;3.73;;
18364;SDS011;9309;52.126;11.616;2023-08-24T03:09:44;4.03;;;3.77;;
18364;SDS011;9309;52.126;11.616;2023-08-24T03:12:11;7.80;;;3.30;;
18364;SDS011;9309;52.126;11.616;2023-08-24T03:14:38;3.70;;;3.37;;
18364;SDS011;9309;52.126;11.616;2023-08-24T03:17:07;4.93;;;4.40;;
18364;SDS011;9309;52.126;11.616;2023-08-24T03:19:33;4.17;;;3.77;;
18364;SDS011;9309;52.126;11.616;2023-08-24T03:22:00;4.73;;;4.10;;
18364;SDS011;9309;52.126;11.616;2023-08-24T03:24:27;3.77;;;3.50;;
18364;SDS011;9309;52.126;11.616;2023-08-24T03:26:59;8.73;;;3.60;;
18364;SDS011;9309;52.126;11.616;2023-08-24T03:29:26;4.10;;;3.80;;
18364;SDS011;9309;52.126;11.616;2023-08-24T03:31:53;4.17;;;3.70;;
18364;SDS011;9309;52.126;11.616;2023-08-24T03:34:20;3.97;;;3.63;;
18364;SDS011;9309;52.126;11.616;2023-08-24T03:36:46;4.00;;;3.70;;
18364;SDS011;9309;52.126;11.616;2023-08-24T03:39:13;5.17;;;3.63;;
18364;SDS011;9309;52.126;11.616;2023-08-24T03:41:40;4.97;;;3.50;;
18364;SDS011;9309;52.126;11.616;2023-08-24T03:44:08;5.53;;;4.03;;
18364;SDS011;9309;52.126;11.616;2023-08-24T03:46:36;4.67;;;4.30;;
18364;SDS011;9309;52.126;11.616;2023-08-24T03:49:02;4.87;;;4.20;;
18364;SDS011;9309;52.126;11.616;2023-08-24T03:51:29;5.07;;;4.67;;
18364;SDS011;9309;52.126;11.616;2023-08-24T03:53:57;4.70;;;4.40;;
18364;SDS011;9309;52.126;11.616;2023-08-24T03:56:25;5.97;;;5.33;;
18364;SDS011;9309;52.126;11.616;2023-08-24T03:58:52;5.10;;;4.60;;
18364;SDS011;9309;52.126;11.616;2023-08-24T04:01:20;5.13;;;4.60;;
18364;SDS011;9309;52.126;11.616;2023-08-24T04:03:48;5.43;;;4.43;;
18364;SDS011;9309;52.126;11.616;2023-08-24T04:06:17;6.87;;;4.87;;
18364;SDS011;9309;52.126;11.616;2023-08-24T04:08:44;4.37;;;4.13;;
18364;SDS011;9309;52.126;11.616;2023-08-24T04:11:11;5.83;;;5.23;;
18364;SDS011;9309;52.126;11.616;2023-08-24T04:13:38;7.87;;;4.77;;
18364;SDS011;9309;52.126;11.616;2023-08-24T04:16:04;9.40;;;4.60;;
18364;SDS011;9309;52.126;11.616;2023-08-24T04:18:32;7.37;;;5.17;;
18364;SDS011;9309;52.126;11.616;2023-08-24T04:20:59;8.17;;;5.00;;
18364;SDS011;9309;52.126;11.616;2023-08-24T04:23:26;10.10;;;4.47;;
18364;SDS011;9309;52.126;11.616;2023-08-24T04:25:53;5.80;;;4.23;;
18364;SDS011;9309;52.126;11.616;2023-08-24T04:28:20;4.63;;;4.23;;
18364;SDS011;9309;52.126;11.616;2023-08-24T04:30:51;4.93;;;4.53;;
18364;SDS011;9309;52.126;11.616;2023-08-24T04:33:18;8.97;;;5.07;;
18364;SDS011;9309;52.126;11.616;2023-08-24T04:35:47;7.23;;;4.77;;
18364;SDS011;9309;52.126;11.616;2023-08-24T04:38:15;8.10;;;5.07;;
18364;SDS011;9309;52.126;11.616;2023-08-24T04:40:48;5.00;;;4.40;;
18364;SDS011;9309;52.126;11.616;2023-08-24T04:43:16;10.87;;;4.93;;
18364;SDS011;9309;52.126;11.616;2023-08-24T04:45:45;10.03;;;5.30;;
18364;SDS011;9309;52.126;11.616;2023-08-24T04:48:12;6.17;;;4.57;;
18364;SDS011;9309;52.126;11.616;2023-08-24T04:50:39;7.80;;;4.23;;
18364;SDS011;9309;52.126;11.616;2023-08-24T04:53:07;5.57;;;5.10;;
18364;SDS011;9309;52.126;11.616;2023-08-24T04:55:34;5.60;;;4.73;;
18364;SDS011;9309;52.126;11.616;2023-08-24T04:58:00;7.17;;;4.77;;
18364;SDS011;9309;52.126;11.616;2023-08-24T05:00:27;11.07;;;5.03;;
18364;SDS011;9309;52.126;11.616;2023-08-24T05:02:54;4.47;;;4.17;;
18364;SDS011;9309;52.126;11.616;2023-08-24T05:05:21;5.40;;;4.73;;
18364;SDS011;9309;52.126;11.616;2023-08-24T05:07:47;13.53;;;5.10;;
18364;SDS011;9309;52.126;11.616;2023-08-24T05:10:16;7.63;;;5.50;;
18364;SDS011;9309;52.126;11.616;2023-08-24T05:12:42;6.33;;;4.67;;
18364;SDS011;9309;52.126;11.616;2023-08-24T05:15:09;5.67;;;4.50;;
18364;SDS011;9309;52.126;11.616;2023-08-24T05:17:36;5.23;;;4.80;;
18364;SDS011;9309;52.126;11.616;2023-08-24T05:20:03;5.40;;;4.67;;
18364;SDS011;9309;52.126;11.616;2023-08-24T05:22:31;8.23;;;4.57;;
18364;SDS011;9309;52.126;11.616;2023-08-24T05:24:57;5.77;;;4.43;;
18364;SDS011;9309;52.126;11.616;2023-08-24T05:27:25;4.93;;;4.40;;
18364;SDS011;9309;52.126;11.616;2023-08-24T05:29:52;4.77;;;4.47;;
18364;SDS011;9309;52.126;11.616;2023-08-24T05:32:19;5.20;;;4.43;;
18364;SDS011;9309;52.126;11.616;2023-08-24T05:34:46;4.33;;;4.00;;
18364;SDS011;9309;52.126;11.616;2023-08-24T05:37:12;5.87;;;4.80;;
18364;SDS011;9309;52.126;11.616;2023-08-24T05:39:39;4.53;;;3.90;;
18364;SDS011;9309;52.126;11.616;2023-08-24T05:42:06;5.07;;;4.40;;
18364;SDS011;9309;52.126;11.616;2023-08-24T05:44:35;5.70;;;4.90;;
18364;SDS011;9309;52.126;11.616;2023-08-24T05:47:02;5.97;;;5.10;;
18364;SDS011;9309;52.126;11.616;2023-08-24T05:49:28;5.97;;;5.03;;
18364;SDS011;9309;52.126;11.616;2023-08-24T05:51:56;10.03;;;4.73;;
18364;SDS011;9309;52.126;11.616;2023-08-24T05:54:22;5.33;;;4.83;;
18364;SDS011;9309;52.126;11.616;2023-08-24T05:56:49;7.33;;;4.97;;
18364;SDS011;9309;52.126;11.616;2023-08-24T05:59:16;4.80;;;4.40;;
18364;SDS011;9309;52.126;11.616;2023-08-24T06:01:44;4.83;;;4.43;;
18364;SDS011;9309;52.126;11.616;2023-08-24T06:04:11;14.33;;;5.07;;
18364;SDS011;9309;52.126;11.616;2023-08-24T06:06:38;8.80;;;4.33;;
18364;SDS011;9309;52.126;11.616;2023-08-24T06:09:04;4.37;;;3.97;;
18364;SDS011;9309;52.126;11.616;2023-08-24T06:11:31;9.60;;;4.27;;
18364;SDS011;9309;52.126;11.616;2023-08-24T06:13:59;6.03;;;4.13;;
18364;SDS011;9309;52.126;11.616;2023-08-24T06:16:25;4.50;;;4.20;;
18364;SDS011;9309;52.126;11.616;2023-08-24T06:18:53;4.53;;;4.13;;
18364;SDS011;9309;52.126;11.616;2023-08-24T06:21:20;4.60;;;4.17;;
18364;SDS011;9309;52.126;11.616;2023-08-24T06:23:47;5.33;;;4.57;;
18364;SDS011;9309;52.126;11.616;2023-08-24T06:26:14;9.13;;;4.30;;
18364;SDS011;9309;52.126;11.616;2023-08-24T06:28:40;3.70;;;3.40;;
18364;SDS011;9309;52.126;11.616;2023-08-24T06:31:07;4.00;;;3.70;;
18364;SDS011;9309;52.126;11.616;2023-08-24T06:33:34;3.57;;;3.27;;
18364;SDS011;9309;52.126;11.616;2023-08-24T06:36:03;7.57;;;3.60;;
18364;SDS011;9309;52.126;11.616;2023-08-24T06:38:31;4.78;;;3.90;;
18364;SDS011;9309;52.126;11.616;2023-08-24T06:40:58;3.87;;;3.53;;
18364;SDS011;9309;52.126;11.616;2023-08-24T06:43:25;3.58;;;3.28;;
18364;SDS011;9309;52.126;11.616;2023-08-24T06:45:51;5.72;;;3.67;;
18364;SDS011;9309;52.126;11.616;2023-08-24T06:48:20;4.82;;;3.22;;
18364;SDS011;9309;52.126;11.616;2023-08-24T06:50:47;3.78;;;3.47;;
18364;SDS011;9309;52.126;11.616;2023-08-24T06:53:15;4.13;;;3.28;;
18364;SDS011;9309;52.126;11.616;2023-08-24T06:55:42;2.92;;;2.78;;
18364;SDS011;9309;52.126;11.616;2023-08-24T06:58:09;3.67;;;3.38;;
18364;SDS011;9309;52.126;11.616;2023-08-24T07:00:36;4.03;;;2.80;;
18364;SDS011;9309;52.126;11.616;2023-08-24T07:03:02;2.97;;;2.65;;
18364;SDS011;9309;52.126;11.616;2023-08-24T07:05:29;2.40;;;2.30;;
18364;SDS011;9309;52.126;11.616;2023-08-24T07:07:59;3.50;;;2.58;;
18364;SDS011;9309;52.126;11.616;2023-08-24T07:10:27;7.07;;;2.53;;
18364;SDS011;9309;52.126;11.616;2023-08-24T07:12:53;3.33;;;2.70;;
18364;SDS011;9309;52.126;11.616;2023-08-24T07:15:20;2.72;;;2.53;;
18364;SDS011;9309;52.126;11.616;2023-08-24T07:17:47;2.67;;;2.58;;
18364;SDS011;9309;52.126;11.616;2023-08-24T07:20:14;2.78;;;2.50;;
18364;SDS011;9309;52.126;11.616;2023-08-24T07:22:41;2.80;;;2.60;;
18364;SDS011;9309;52.126;11.616;2023-08-24T07:25:08;2.53;;;2.33;;
18364;SDS011;9309;52.126;11.616;2023-08-24T07:27:37;4.30;;;2.95;;
18364;SDS011;9309;52.126;11.616;2023-08-24T07:30:04;2.60;;;2.50;;
18364;SDS011;9309;52.126;11.616;2023-08-24T07:32:32;2.70;;;2.50;;
18364;SDS011;9309;52.126;11.616;2023-08-24T07:34:59;2.90;;;2.58;;
18364;SDS011;9309;52.126;11.616;2023-08-24T07:37:26;3.05;;;2.80;;
18364;SDS011;9309;52.126;11.616;2023-08-24T07:39:53;2.92;;;2.72;;
18364;SDS011;9309;52.126;11.616;2023-08-24T07:42:20;3.13;;;2.88;;
18364;SDS011;9309;52.126;11.616;2023-08-24T07:44:48;4.07;;;2.50;;
18364;SDS011;9309;52.126;11.616;2023-08-24T07:47:15;4.90;;;2.45;;
18364;SDS011;9309;52.126;11.616;2023-08-24T07:49:42;2.42;;;2.33;;
18364;SDS011;9309;52.126;11.616;2023-08-24T07:52:09;2.80;;;2.60;;
18364;SDS011;9309;52.126;11.616;2023-08-24T07:54:37;3.83;;;2.40;;
18364;SDS011;9309;52.126;11.616;2023-08-24T07:57:04;2.00;;;2.00;;
18364;SDS011;9309;52.126;11.616;2023-08-24T07:59:31;2.03;;;2.03;;
18364;SDS011;9309;52.126;11.616;2023-08-24T08:01:59;2.75;;;2.58;;
18364;SDS011;9309;52.126;11.616;2023-08-24T08:04:25;3.20;;;2.30;;
18364;SDS011;9309;52.126;11.616;2023-08-24T08:06:52;2.08;;;2.03;;
18364;SDS011;9309;52.126;11.616;2023-08-24T08:09:20;4.45;;;2.03;;
18364;SDS011;9309;52.126;11.616;2023-08-24T08:11:47;2.22;;;2.13;;
18364;SDS011;9309;52.126;11.616;2023-08-24T08:14:14;2.80;;;2.00;;
18364;SDS011;9309;52.126;11.616;2023-08-24T08:16:41;5.53;;;2.10;;
18364;SDS011;9309;52.126;11.616;2023-08-24T08:19:09;2.33;;;2.20;;
18364;SDS011;9309;52.126;11.616;2023-08-24T08:21:36;2.15;;;2.05;;
18364;SDS011;9309;52.126;11.616;2023-08-24T08:24:02;3.15;;;2.28;;
18364;SDS011;9309;52.126;11.616;2023-08-24T08:26:29;2.40;;;2.30;;
18364;SDS011;9309;52.126;11.616;2023-08-24T08:28:56;2.60;;;2.40;;
18364;SDS011;9309;52.126;11.616;2023-08-24T08:31:23;2.45;;;1.95;;
18364;SDS011;9309;52.126;11.616;2023-08-24T08:33:50;2.25;;;2.15;;
18364;SDS011;9309;52.126;11.616;2023-08-24T08:36:19;2.00;;;1.90;;
18364;SDS011;9309;52.126;11.616;2023-08-24T08:38:45;3.08;;;2.67;;
18364;SDS011;9309;52.126;11.616;2023-08-24T08:41:12;2.15;;;1.98;;
18364;SDS011;9309;52.126;11.616;2023-08-24T08:43:41;3.13;;;2.58;;
18364;SDS011;9309;52.126;11.616;2023-08-24T08:46:08;1.95;;;1.85;;
18364;SDS011;9309;52.126;11.616;2023-08-24T08:48:36;2.03;;;1.95;;
18364;SDS011;9309;52.126;11.616;2023-08-24T08:51:06;9.13;;;2.92;;
18364;SDS011;9309;52.126;11.616;2023-08-24T08:53:34;3.50;;;2.78;;
18364;SDS011;9309;52.126;11.616;2023-08-24T08:56:01;2.58;;;2.47;;
18364;SDS011;9309;52.126;11.616;2023-08-24T08:58:30;2.78;;;2.15;;
18364;SDS011;9309;52.126;11.616;2023-08-24T09:00:58;2.78;;;2.42;;
18364;SDS011;9309;52.126;11.616;2023-08-24T09:03:28;2.08;;;1.92;;
18364;SDS011;9309;52.126;11.616;2023-08-24T09:05:57;2.90;;;2.65;;
18364;SDS011;9309;52.126;11.616;2023-08-24T09:08:24;2.40;;;2.30;;
18364;SDS011;9309;52.126;11.616;2023-08-24T09:10:54;2.65;;;2.53;;
18364;SDS011;9309;52.126;11.616;2023-08-24T09:13:21;2.10;;;2.00;;
18364;SDS011;9309;52.126;11.616;2023-08-24T09:15:50;2.78;;;2.63;;
18364;SDS011;9309;52.126;11.616;2023-08-24T09:18:17;2.60;;;2.50;;
18364;SDS011;9309;52.126;11.616;2023-08-24T09:20:44;2.72;;;2.53;;
18364;SDS011;9309;52.126;11.616;2023-08-24T09:23:19;2.05;;;1.98;;
18364;SDS011;9309;52.126;11.616;2023-08-24T09:25:46;1.83;;;1.75;;
18364;SDS011;9309;52.126;11.616;2023-08-24T09:28:15;2.60;;;1.88;;
18364;SDS011;9309;52.126;11.616;2023-08-24T09:30:49;3.25;;;2.22;;
18364;SDS011;9309;52.126;11.616;2023-08-24T09:33:18;4.35;;;2.50;;
18364;SDS011;9309;52.126;11.616;2023-08-24T09:35:51;21.73;;;2.70;;
18364;SDS011;9309;52.126;11.616;2023-08-24T09:38:21;1.73;;;1.60;;
18364;SDS011;9309;52.126;11.616;2023-08-24T09:40:50;2.03;;;2.00;;
18364;SDS011;9309;52.126;11.616;2023-08-24T09:43:18;1.75;;;1.70;;
18364;SDS011;9309;52.126;11.616;2023-08-24T09:45:47;1.95;;;1.88;;
18364;SDS011;9309;52.126;11.616;2023-08-24T09:48:15;2.75;;;1.95;;
18364;SDS011;9309;52.126;11.616;2023-08-24T09:50:42;3.53;;;2.40;;
18364;SDS011;9309;52.126;11.616;2023-08-24T09:53:10;1.80;;;1.70;;
18364;SDS011;9309;52.126;11.616;2023-08-24T09:55:46;3.53;;;1.90;;
18364;SDS011;9309;52.126;11.616;2023-08-24T09:58:18;1.83;;;1.83;;
18364;SDS011;9309;52.126;11.616;2023-08-24T10:00:45;2.33;;;1.95;;
18364;SDS011;9309;52.126;11.616;2023-08-24T10:03:13;2.38;;;2.20;;
18364;SDS011;9309;52.126;11.616;2023-08-24T10:05:45;1.98;;;1.92;;
18364;SDS011;9309;52.126;11.616;2023-08-24T10:08:14;2.08;;;1.98;;
18364;SDS011;9309;52.126;11.616;2023-08-24T10:10:42;1.40;;;1.40;;
18364;SDS011;9309;52.126;11.616;2023-08-24T10:13:11;1.85;;;1.67;;
18364;SDS011;9309;52.126;11.616;2023-08-24T10:15:45;14.10;;;2.03;;
18364;SDS011;9309;52.126;11.616;2023-08-24T10:18:14;2.10;;;2.00;;
18364;SDS011;9309;52.126;11.616;2023-08-24T10:20:41;2.35;;;2.17;;
18364;SDS011;9309;52.126;11.616;2023-08-24T10:23:09;1.73;;;1.63;;
18364;SDS011;9309;52.126;11.616;2023-08-24T10:25:37;2.40;;;1.52;;
18364;SDS011;9309;52.126;11.616;2023-08-24T10:28:07;1.55;;;1.50;;
18364;SDS011;9309;52.126;11.616;2023-08-24T10:30:34;1.80;;;1.65;;
18364;SDS011;9309;52.126;11.616;2023-08-24T10:33:04;3.75;;;1.67;;
18364;SDS011;9309;52.126;11.616;2023-08-24T10:35:31;1.20;;;1.20;;
18364;SDS011;9309;52.126;11.616;2023-08-24T10:37:58;1.80;;;1.70;;
18364;SDS011;9309;52.126;11.616;2023-08-24T10:40:31;1.80;;;1.73;;
18364;SDS011;9309;52.126;11.616;2023-08-24T10:43:02;1.50;;;1.50;;
18364;SDS011;9309;52.126;11.616;2023-08-24T10:48:23;3.60;;;2.33;;
18364;SDS011;9309;52.126;11.616;2023-08-24T10:53:46;1.58;;;1.58;;
18364;SDS011;9309;52.126;11.616;2023-08-24T10:56:14;1.95;;;1.50;;
18364;SDS011;9309;52.126;11.616;2023-08-24T10:58:41;2.35;;;1.70;;
18364;SDS011;9309;52.126;11.616;2023-08-24T11:01:13;1.60;;;1.50;;
18364;SDS011;9309;52.126;11.616;2023-08-24T11:03:46;2.47;;;1.85;;
18364;SDS011;9309;52.126;11.616;2023-08-24T11:06:18;1.55;;;1.45;;
18364;SDS011;9309;52.126;11.616;2023-08-24T11:08:46;1.67;;;1.58;;
18364;SDS011;9309;52.126;11.616;2023-08-24T11:11:20;2.85;;;1.60;;
18364;SDS011;9309;52.126;11.616;2023-08-24T11:16:39;1.60;;;1.50;;
18364;SDS011;9309;52.126;11.616;2023-08-24T11:19:09;1.20;;;1.20;;
18364;SDS011;9309;52.126;11.616;2023-08-24T11:21:37;1.27;;;1.27;;
18364;SDS011;9309;52.126;11.616;2023-08-24T11:24:05;3.05;;;1.88;;
18364;SDS011;9309;52.126;11.616;2023-08-24T11:26:31;2.55;;;1.25;;
18364;SDS011;9309;52.126;11.616;2023-08-24T11:28:58;1.17;;;1.17;;
18364;SDS011;9309;52.126;11.616;2023-08-24T11:31:25;1.70;;;1.60;;
18364;SDS011;9309;52.126;11.616;2023-08-24T11:33:53;1.73;;;1.60;;
18364;SDS011;9309;52.126;11.616;2023-08-24T11:36:22;2.25;;;1.20;;
18364;SDS011;9309;52.126;11.616;2023-08-24T11:38:51;1.40;;;1.40;;
18364;SDS011;9309;52.126;11.616;2023-08-24T11:41:19;1.52;;;1.50;;
18364;SDS011;9309;52.126;11.616;2023-08-24T11:43:46;1.20;;;1.20;;
18364;SDS011;9309;52.126;11.616;2023-08-24T11:46:15;1.20;;;1.20;;
18364;SDS011;9309;52.126;11.616;2023-08-24T11:48:43;1.83;;;1.17;;
18364;SDS011;9309;52.126;11.616;2023-08-24T11:51:10;1.33;;;1.30;;
18364;SDS011;9309;52.126;11.616;2023-08-24T11:53:40;1.50;;;1.50;;
18364;SDS011;9309;52.126;11.616;2023-08-24T11:56:08;1.58;;;1.58;;
18364;SDS011;9309;52.126;11.616;2023-08-24T11:58:37;1.40;;;1.40;;
18364;SDS011;9309;52.126;11.616;2023-08-24T12:01:04;1.08;;;1.08;;
18364;SDS011;9309;52.126;11.616;2023-08-24T12:03:31;1.52;;;1.52;;
18364;SDS011;9309;52.126;11.616;2023-08-24T12:05:58;1.45;;;1.40;;
18364;SDS011;9309;52.126;11.616;2023-08-24T12:08:26;1.60;;;1.52;;
18364;SDS011;9309;52.126;11.616;2023-08-24T12:10:54;1.40;;;1.30;;
18364;SDS011;9309;52.126;11.616;2023-08-24T12:13:21;1.10;;;1.10;;
18364;SDS011;9309;52.126;11.616;2023-08-24T12:15:48;1.45;;;1.35;;
18364;SDS011;9309;52.126;11.616;2023-08-24T12:18:16;1.42;;;1.42;;
18364;SDS011;9309;52.126;11.616;2023-08-24T12:20:44;1.75;;;1.52;;
18364;SDS011;9309;52.126;11.616;2023-08-24T12:23:11;2.08;;;1.40;;
18364;SDS011;9309;52.126;11.616;2023-08-24T12:25:38;1.13;;;1.13;;
18364;SDS011;9309;52.126;11.616;2023-08-24T12:28:10;1.60;;;1.23;;
18364;SDS011;9309;52.126;11.616;2023-08-24T12:30:45;1.33;;;1.33;;
18364;SDS011;9309;52.126;11.616;2023-08-24T12:33:25;1.20;;;1.20;;
18364;SDS011;9309;52.126;11.616;2023-08-24T12:35:53;1.00;;;1.00;;
18364;SDS011;9309;52.126;11.616;2023-08-24T13:15:06;1.40;;;1.40;;
18364;SDS011;9309;52.126;11.616;2023-08-24T13:59:11;1.77;;;1.67;;
18364;SDS011;9309;52.126;11.616;2023-08-24T14:01:38;1.52;;;1.52;;
18364;SDS011;9309;52.126;11.616;2023-08-24T14:04:05;1.40;;;1.40;;
18364;SDS011;9309;52.126;11.616;2023-08-24T14:06:32;2.03;;;1.48;;
18364;SDS011;9309;52.126;11.616;2023-08-24T14:09:03;1.60;;;1.50;;
18364;SDS011;9309;52.126;11.616;2023-08-24T14:11:30;1.67;;;1.58;;
18364;SDS011;9309;52.126;11.616;2023-08-24T14:13:57;1.20;;;1.20;;
18364;SDS011;9309;52.126;11.616;2023-08-24T14:16:24;1.45;;;1.45;;
18364;SDS011;9309;52.126;11.616;2023-08-24T14:18:51;1.30;;;1.30;;
18364;SDS011;9309;52.126;11.616;2023-08-24T14:21:18;1.60;;;1.50;;
18364;SDS011;9309;52.126;11.616;2023-08-24T14:23:46;1.20;;;1.20;;
18364;SDS011;9309;52.126;11.616;2023-08-24T14:26:14;1.52;;;1.13;;
18364;SDS011;9309;52.126;11.616;2023-08-24T14:28:47;1.70;;;1.25;;
18364;SDS011;9309;52.126;11.616;2023-08-24T14:31:15;3.67;;;1.48;;
18364;SDS011;9309;52.126;11.616;2023-08-24T14:33:41;1.60;;;1.50;;
18364;SDS011;9309;52.126;11.616;2023-08-24T14:36:09;1.20;;;1.20;;
18364;SDS011;9309;52.126;11.616;2023-08-24T14:38:37;1.20;;;1.20;;
18364;SDS011;9309;52.126;11.616;2023-08-24T14:41:05;1.70;;;1.60;;
18364;SDS011;9309;52.126;11.616;2023-08-24T14:43:33;1.60;;;1.50;;
18364;SDS011;9309;52.126;11.616;2023-08-24T14:46:02;1.20;;;1.20;;
18364;SDS011;9309;52.126;11.616;2023-08-24T14:48:29;1.80;;;1.70;;
18364;SDS011;9309;52.126;11.616;2023-08-24T14:50:58;1.20;;;1.20;;
18364;SDS011;9309;52.126;11.616;2023-08-24T14:53:25;2.83;;;1.80;;
18364;SDS011;9309;52.126;11.616;2023-08-24T14:55:54;1.85;;;1.75;;
18364;SDS011;9309;52.126;11.616;2023-08-24T14:58:21;1.70;;;1.60;;
18364;SDS011;9309;52.126;11.616;2023-08-24T15:00:50;2.40;;;1.60;;
18364;SDS011;9309;52.126;11.616;2023-08-24T15:03:17;3.42;;;1.48;;
18364;SDS011;9309;52.126;11.616;2023-08-24T15:05:44;1.42;;;1.33;;
18364;SDS011;9309;52.126;11.616;2023-08-24T15:08:13;1.52;;;1.33;;
18364;SDS011;9309;52.126;11.616;2023-08-24T15:10:40;2.25;;;1.25;;
18364;SDS011;9309;52.126;11.616;2023-08-24T15:13:07;1.33;;;1.33;;
18364;SDS011;9309;52.126;11.616;2023-08-24T15:15:34;1.88;;;1.65;;
18364;SDS011;9309;52.126;11.616;2023-08-24T15:18:04;3.00;;;1.55;;
18364;SDS011;9309;52.126;11.616;2023-08-24T15:20:30;2.17;;;1.92;;
18364;SDS011;9309;52.126;11.616;2023-08-24T15:22:58;1.70;;;1.60;;
18364;SDS011;9309;52.126;11.616;2023-08-24T15:25:25;4.70;;;1.35;;
18364;SDS011;9309;52.126;11.616;2023-08-24T15:27:52;1.50;;;1.40;;
18364;SDS011;9309;52.126;11.616;2023-08-24T15:30:19;2.05;;;1.65;;
18364;SDS011;9309;52.126;11.616;2023-08-24T15:32:46;2.35;;;1.23;;
18364;SDS011;9309;52.126;11.616;2023-08-24T15:35:14;1.50;;;1.40;;
18364;SDS011;9309;52.126;11.616;2023-08-24T15:37:41;2.83;;;1.58;;
18364;SDS011;9309;52.126;11.616;2023-08-24T15:40:08;1.30;;;1.30;;
18364;SDS011;9309;52.126;11.616;2023-08-24T15:42:35;1.40;;;1.30;;
18364;SDS011;9309;52.126;11.616;2023-08-24T15:45:02;1.13;;;1.13;;
18364;SDS011;9309;52.126;11.616;2023-08-24T15:47:29;3.13;;;1.40;;
18364;SDS011;9309;52.126;11.616;2023-08-24T15:49:56;1.40;;;1.40;;
18364;SDS011;9309;52.126;11.616;2023-08-24T15:52:24;1.35;;;1.35;;
18364;SDS011;9309;52.126;11.616;2023-08-24T15:54:51;1.40;;;1.40;;
18364;SDS011;9309;52.126;11.616;2023-08-24T15:57:18;1.35;;;1.30;;
18364;SDS011;9309;52.126;11.616;2023-08-24T15:59:44;1.50;;;1.40;;
18364;SDS011;9309;52.126;11.616;2023-08-24T16:02:11;1.80;;;1.70;;
18364;SDS011;9309;52.126;11.616;2023-08-24T16:04:38;4.88;;;1.90;;
18364;SDS011;9309;52.126;11.616;2023-08-24T16:07:05;2.75;;;1.50;;
18364;SDS011;9309;52.126;11.616;2023-08-24T16:09:33;2.33;;;2.13;;
18364;SDS011;9309;52.126;11.616;2023-08-24T16:11:59;2.67;;;1.50;;
18364;SDS011;9309;52.126;11.616;2023-08-24T16:14:26;1.45;;;1.42;;
18364;SDS011;9309;52.126;11.616;2023-08-24T16:16:53;2.38;;;1.98;;
18364;SDS011;9309;52.126;11.616;2023-08-24T16:19:19;2.55;;;1.40;;